Viru-Viru, Bolivia

1:09 AM BOT on August 21, 2014 (GMT -0400)
Viru Viru International | Change Station
CLOSE
Current Station
Airport
Location: Viru-Viru,
Elevation: 1224 ft
Nearby Weather Stations

Elev 1224 ft 17.64 °S, 63.14 °W | Updated 9 minutes ago

Clear
Clear
72 °F
Feels Like 72 °F
N
6
Wind Variable Wind from NW

Today
High -- | Low -- °F
--% Chance of Precip.
Yesterday
High -- | Low -- °F
Precip. -- in
6:27 AM 6:03 PM
Waning Crescent, 16% visible
Pressure 29.92 in
Visibility 6.2 miles
Clouds
Dew Point 63 °F
Humidity 73%
Rainfall 0.00 in
Snow Depth Not available.
UV Not available.
Pollen Not available.
Air Quality Not available.
Flu Activity Not available.
METAR SLVR 210500Z 32005KT 9999 NSC 22/17 Q1013

More Conditions Fewer Conditions

Pressure 29.92 in
Visibility 6.2 miles
Clouds
Dew Point 63 °F
Humidity 73%
Rainfall 0.00 in
Snow Depth Not available.
UV Not available.
Pollen Not available.
Air Quality Not available.
Flu Activity Not available.
METAR SLVR 210500Z 32005KT 9999 NSC 22/17 Q1013

More Conditions Fewer Conditions

10-Day Weather Forecast

Almanac

Astronomy

Aug. 21, 2014 Rise Set
Actual Time 6:27 AM BOT 6:03 PM BOT
Civil Twilight 6:05 AM BOT 6:25 PM BOT
Nautical Twilight 5:40 AM BOT 6:51 PM BOT
Astronomical Twilight 5:14 AM BOT 7:16 PM BOT
Moon 3:26 AM BOT 3:00 PM BOT
Length of Visible Light 12h 20m
Length of Day
11h 36m
Tomorrow will be 0m 53s longer.
Waning Crescent, 16% of the Moon is Illuminated
Today
Waning Crescent
Aug 25
New
Sep 2
First Quarter
Sep 8
Full
Sep 15
Last Quarter

Yesterday's Extremes

Country Highs Country Lows

Community

WunderPhotos

Upload Photos

1,745,857 photos uploaded!

Nearby

Snow Depth

Not available.

Earthquake Activity

City Distance Mag. Time & Date
No recent earthquake activity has been reported nearby.
Minimum magnitude displayed is 2.5.

Coastal Water Temperatures

Place Temperature
No Stations Reporting

Nearby Weather Stations